Time;durP1;ratioP1;P1;durP2;ratioP2;P2;SDS_P1;SDS_P2;PMS_P1;PMS_P2;Temp;Humidity;BMP_temperature;BMP_pressure;BME280_temperature;BME280_humidity;BME280_pressure;Samples;Min_cycle;Max_cycle;Signal;HPM_P1;HPM_P2
2023/05/10 00:00:47;;;;;;;0.70;0.57;;;;;;;17.77;48.32;100113.00;4996849;28;20045;-65
2023/05/10 00:03:13;;;;;;;0.80;0.60;;;;;;;17.48;48.52;100116.63;4999153;28;20038;-65
2023/05/10 00:05:38;;;;;;;0.75;0.50;;;;;;;17.59;48.77;100120.75;4992349;28;20080;-65
2023/05/10 00:08:04;;;;;;;2.20;0.80;;;;;;;17.63;48.70;100120.66;5008968;28;20412;-65
2023/05/10 00:10:30;;;;;;;1.73;0.70;;;;;;;17.53;48.86;100113.44;4996045;28;20530;-66
2023/05/10 00:12:58;;;;;;;1.63;0.90;;;;;;;17.68;48.92;100101.13;4996616;28;20037;-65
2023/05/10 00:15:23;;;;;;;2.03;0.80;;;;;;;17.74;48.42;100108.41;4999421;28;20068;-65
2023/05/10 00:17:49;;;;;;;0.25;0.25;;;;;;;17.70;48.52;100104.97;5000452;28;20069;-65
2023/05/10 00:20:14;;;;;;;0.65;0.57;;;;;;;17.68;48.52;100101.13;4985975;28;20483;-65
2023/05/10 00:22:40;;;;;;;2.13;0.95;;;;;;;17.50;48.89;100104.13;4991851;28;20394;-65
2023/05/10 00:25:06;;;;;;;2.17;0.63;;;;;;;17.33;49.36;100094.28;4996000;28;20545;-64
2023/05/10 00:27:31;;;;;;;1.25;0.82;;;;;;;17.37;49.49;100097.72;4990610;28;20391;-65
2023/05/10 00:29:57;;;;;;;1.40;0.70;;;;;;;17.33;49.25;100091.56;4977697;28;20042;-64
2023/05/10 00:32:22;;;;;;;0.77;0.57;;;;;;;17.31;49.49;100083.03;4988427;28;20560;-64
2023/05/10 00:34:48;;;;;;;0.52;0.40;;;;;;;17.26;49.58;100083.53;4990312;28;20427;-65
2023/05/10 00:37:13;;;;;;;1.17;0.60;;;;;;;17.41;49.68;100076.66;4996314;28;20045;-65
2023/05/10 00:39:39;;;;;;;2.15;1.02;;;;;;;17.17;49.82;100082.50;4996282;28;20029;-65
2023/05/10 00:42:04;;;;;;;0.85;0.60;;;;;;;17.12;49.94;100081.03;4988490;28;20038;-65
2023/05/10 00:44:30;;;;;;;0.43;0.43;;;;;;;17.19;49.91;100075.44;4986713;28;20026;-65
2023/05/10 00:46:56;;;;;;;1.08;0.68;;;;;;;17.27;49.57;100078.81;4994972;28;20033;-65
2023/05/10 00:49:22;;;;;;;0.63;0.63;;;;;;;17.30;49.79;100078.03;5007849;28;20033;-65
2023/05/10 00:51:49;;;;;;;0.57;0.55;;;;;;;17.41;49.30;100076.66;4985016;28;20034;-65
2023/05/10 00:54:16;;;;;;;1.55;0.60;;;;;;;17.36;49.33;100071.69;4996159;28;20117;-65
2023/05/10 00:56:42;;;;;;;0.40;0.30;;;;;;;17.05;49.75;100072.97;5006079;28;20053;-65
2023/05/10 00:59:08;;;;;;;0.70;0.70;;;;;;;17.05;50.23;100064.81;5001737;28;20100;-65
2023/05/10 01:01:35;;;;;;;0.50;0.50;;;;;;;17.06;50.19;100060.91;4994121;28;20030;-65
2023/05/10 01:04:01;;;;;;;1.45;0.50;;;;;;;17.06;50.14;100061.69;5009441;28;20108;-65
2023/05/10 01:06:27;;;;;;;0.68;0.30;;;;;;;17.19;49.61;100067.28;4986083;28;20557;-65
2023/05/10 01:08:53;;;;;;;1.45;0.73;;;;;;;16.99;50.25;100066.47;5005193;28;20048;-65
2023/05/10 01:11:18;;;;;;;0.85;0.70;;;;;;;17.06;49.90;100055.47;4996755;28;20029;-65
2023/05/10 01:13:50;;;;;;;1.25;0.77;;;;;;;16.90;50.36;100058.03;5008236;28;20037;-65
2023/05/10 01:16:15;;;;;;;2.53;0.63;;;;;;;16.93;50.29;100054.50;4978928;28;20042;-65
2023/05/10 01:18:41;;;;;;;1.23;0.60;;;;;;;16.54;50.70;100055.06;5011890;28;20036;-64
2023/05/10 01:21:23;;;;;;;0.63;0.50;;;;;;;16.65;51.32;100054.91;4995572;28;20406;-64
2023/05/10 01:23:52;;;;;;;0.73;0.55;;;;;;;16.74;51.16;100049.75;5004990;28;20130;-65
2023/05/10 01:26:55;;;;;;;0.95;0.70;;;;;;;16.79;50.70;100052.75;5001466;28;20037;-65
2023/05/10 01:29:51;;;;;;;0.60;0.52;;;;;;;16.83;50.69;100066.31;5001996;28;20053;-65
2023/05/10 01:32:22;;;;;;;0.93;0.60;;;;;;;16.90;50.94;100068.91;4992915;28;20394;-65
2023/05/10 01:35:05;;;;;;;0.50;0.38;;;;;;;16.89;50.42;100065.44;4999716;28;20084;-64
2023/05/10 01:37:52;;;;;;;;;;;;;;;16.66;51.05;100067.34;4994159;28;20072;-65
2023/05/10 01:40:39;;;;;;;0.43;0.43;;;;;;;16.80;51.18;100075.31;4997699;28;19913;-65
2023/05/10 01:43:10;;;;;;;0.93;0.50;;;;;;;16.90;50.70;100066.19;4996680;28;20050;-66
2023/05/10 01:45:50;;;;;;;0.57;0.57;;;;;;;16.51;51.64;100060.56;5004260;28;20063;-64
2023/05/10 01:48:19;;;;;;;2.55;0.85;;;;;;;16.66;51.43;100064.63;4985505;28;20861;-65
2023/05/10 01:50:46;;;;;;;0.73;0.60;;;;;;;16.64;51.01;100058.81;4993943;28;20553;-65
2023/05/10 01:53:17;;;;;;;4.93;0.65;;;;;;;16.71;51.21;100064.16;5005141;28;20033;-65
2023/05/10 01:55:50;;;;;;;0.70;0.50;;;;;;;16.47;51.67;100057.09;4990803;28;20062;-65
2023/05/10 01:58:38;;;;;;;1.02;0.50;;;;;;;16.40;51.88;100049.00;4983920;28;20046;-65
2023/05/10 02:01:05;;;;;;;0.60;0.50;;;;;;;16.45;52.01;100059.44;4981318;28;20526;-65
2023/05/10 02:03:33;;;;;;;1.80;0.90;;;;;;;16.56;52.13;100062.81;4981241;28;20026;-66
2023/05/10 02:05:59;;;;;;;1.48;0.70;;;;;;;16.46;51.81;100060.97;4974416;28;20030;-65
2023/05/10 02:08:26;;;;;;;0.75;0.50;;;;;;;16.53;51.91;100053.50;4977693;28;20044;-65
2023/05/10 02:10:54;;;;;;;1.55;0.65;;;;;;;16.40;52.31;100054.44;5002319;28;20387;-64
2023/05/10 02:13:21;;;;;;;1.50;0.88;;;;;;;16.50;51.92;100056.28;4995373;28;20479;-66
2023/05/10 02:15:49;;;;;;;1.35;0.80;;;;;;;16.22;52.53;100051.94;4992541;28;20435;-65
2023/05/10 02:18:16;;;;;;;0.77;0.60;;;;;;;16.21;52.66;100064.78;4994083;28;20088;-65
2023/05/10 02:20:46;;;;;;;1.10;0.70;;;;;;;16.30;52.56;100055.38;4992630;28;20048;-65
2023/05/10 02:23:13;;;;;;;0.90;0.63;;;;;;;16.44;52.42;100060.59;4991527;28;20045;-65
2023/05/10 02:25:39;;;;;;;1.10;0.63;;;;;;;16.41;52.37;100051.34;4992353;28;20030;-65
2023/05/10 02:28:06;;;;;;;1.63;0.52;;;;;;;16.19;52.35;100050.84;4992013;28;20030;-64
2023/05/10 02:30:34;;;;;;;1.30;0.77;;;;;;;16.24;52.63;100046.88;5000785;28;20082;-65
2023/05/10 02:33:00;;;;;;;0.70;0.50;;;;;;;16.22;52.71;100055.44;5006129;28;20057;-66
2023/05/10 02:35:27;;;;;;;0.73;0.73;;;;;;;16.22;52.85;100039.13;4984576;28;20128;-65
2023/05/10 02:37:54;;;;;;;1.10;1.00;;;;;;;16.24;52.81;100049.59;4989086;28;20029;-65
2023/05/10 02:40:21;;;;;;;0.93;0.63;;;;;;;16.22;52.82;100047.28;4981085;28;20121;-65
2023/05/10 02:42:51;;;;;;;1.05;0.85;;;;;;;16.21;52.85;100040.34;4993271;28;20148;-65
2023/05/10 02:45:21;;;;;;;1.10;0.70;;;;;;;16.01;53.48;100036.69;4987893;28;20026;-65
2023/05/10 02:47:48;;;;;;;1.10;0.88;;;;;;;16.09;53.50;100040.88;4993459;28;20515;-65
2023/05/10 02:50:13;;;;;;;0.82;0.60;;;;;;;15.65;54.21;100042.91;4988708;28;20072;-65
2023/05/10 02:52:54;;;;;;;0.93;0.60;;;;;;;15.88;53.77;100035.69;4990032;28;20042;-65
2023/05/10 02:55:25;;;;;;;0.40;0.40;;;;;;;15.91;53.86;100028.69;4984659;28;20041;-65
2023/05/10 02:58:08;;;;;;;1.83;1.08;;;;;;;15.80;54.33;100034.22;4993831;28;20033;-65
2023/05/10 03:00:36;;;;;;;1.73;0.47;;;;;;;15.82;54.02;100031.88;4987362;28;20034;-64
2023/05/10 03:03:01;;;;;;;0.80;0.65;;;;;;;15.87;53.91;100034.13;4996060;28;20037;-65
2023/05/10 03:05:27;;;;;;;0.82;0.60;;;;;;;15.94;53.67;100022.41;4982504;28;20022;-65
2023/05/10 03:07:54;;;;;;;0.98;0.70;;;;;;;15.75;54.38;100021.09;4991981;28;20092;-64
2023/05/10 03:10:26;;;;;;;0.88;0.57;;;;;;;15.80;54.40;100026.06;4985885;28;20450;-65
2023/05/10 03:13:11;;;;;;;2.65;1.33;;;;;;;15.66;54.42;100020.78;4989129;28;20029;-65
2023/05/10 03:16:02;;;;;;;0.60;0.60;;;;;;;15.71;55.10;100023.06;4991875;28;20045;-65
2023/05/10 03:18:36;;;;;;;1.75;0.70;;;;;;;15.63;54.70;100032.47;4987514;28;20034;-65
2023/05/10 03:21:07;;;;;;;1.25;0.93;;;;;;;15.43;55.48;100031.50;4982254;28;20037;-65
2023/05/10 03:23:40;;;;;;;1.17;0.80;;;;;;;15.45;55.06;100022.97;4983550;28;20124;-64
2023/05/10 03:26:07;;;;;;;0.50;0.50;;;;;;;15.64;55.15;100023.13;4986017;28;20034;-65
2023/05/10 03:28:34;;;;;;;0.47;0.40;;;;;;;15.71;55.45;100028.50;4990275;28;20057;-63
2023/05/10 03:31:00;;;;;;;2.08;0.75;;;;;;;15.58;55.20;100027.47;4982348;28;20030;-63
2023/05/10 03:33:25;;;;;;;0.90;0.70;;;;;;;15.49;55.92;100026.41;4984664;28;20173;-64
2023/05/10 03:35:51;;;;;;;1.80;0.65;;;;;;;15.77;55.41;100034.25;4982013;28;20030;-63
2023/05/10 03:38:16;;;;;;;1.23;0.85;;;;;;;15.52;55.39;100020.97;4993837;28;20148;-65
2023/05/10 03:40:42;;;;;;;0.60;0.57;;;;;;;15.54;55.50;100023.25;5002394;28;20069;-65
2023/05/10 03:43:07;;;;;;;3.55;0.70;;;;;;;15.67;55.29;100022.34;4991384;28;20030;-65
2023/05/10 03:45:35;;;;;;;1.70;1.25;;;;;;;15.64;55.41;100025.84;4998931;28;20052;-65
2023/05/10 03:48:01;;;;;;;1.25;0.63;;;;;;;15.60;55.52;100019.69;4991211;28;20038;-65
2023/05/10 03:50:26;;;;;;;1.10;0.68;;;;;;;15.58;55.13;100030.19;4985979;28;20030;-65
2023/05/10 03:52:52;;;;;;;0.40;0.40;;;;;;;15.71;55.37;100020.38;4988936;28;20671;-65
2023/05/10 03:55:18;;;;;;;2.13;1.20;;;;;;;15.78;55.03;100031.13;4988653;28;20065;-65
2023/05/10 03:57:44;;;;;;;0.57;0.57;;;;;;;15.76;55.37;100036.19;4989343;28;20045;-65
2023/05/10 04:00:10;;;;;;;1.17;0.70;;;;;;;15.55;55.50;100028.28;4981670;28;20034;-65
2023/05/10 04:02:42;;;;;;;1.33;0.80;;;;;;;15.75;55.25;100031.19;5000750;28;20128;-65
2023/05/10 04:05:11;;;;;;;1.85;0.70;;;;;;;15.52;55.62;100031.81;4992510;28;20030;-65
2023/05/10 04:07:36;;;;;;;0.47;0.47;;;;;;;15.43;56.80;100026.06;4991508;28;20033;-65
2023/05/10 04:10:02;;;;;;;1.40;0.80;;;;;;;15.51;56.79;100015.91;4981310;28;21048;-66
2023/05/10 04:12:27;;;;;;;0.90;0.85;;;;;;;15.50;56.67;100031.44;4984011;28;20728;-65
2023/05/10 04:14:53;;;;;;;0.55;0.50;;;;;;;15.51;56.44;100032.19;4999569;28;20034;-64
2023/05/10 04:17:18;;;;;;;1.05;0.50;;;;;;;15.63;56.15;100023.53;4997830;28;20046;-66
2023/05/10 04:19:44;;;;;;;1.52;1.27;;;;;;;15.74;56.05;100021.47;5005311;28;20026;-65
2023/05/10 04:22:09;;;;;;;1.92;0.70;;;;;;;15.86;55.52;100010.09;4998976;28;20211;-65
2023/05/10 04:24:35;;;;;;;0.77;0.52;;;;;;;15.80;55.98;100017.16;4997164;28;20034;-65
2023/05/10 04:27:00;;;;;;;0.70;0.60;;;;;;;15.86;55.77;100016.31;5001509;28;20061;-65
2023/05/10 04:29:26;;;;;;;1.15;0.70;;;;;;;15.34;57.09;100023.81;5012790;28;20497;-65
2023/05/10 04:31:51;;;;;;;0.82;0.68;;;;;;;15.36;57.08;100021.47;4994712;28;20092;-65
2023/05/10 04:34:17;;;;;;;1.08;0.88;;;;;;;15.46;57.36;100022.56;4997786;28;20703;-65
2023/05/10 04:36:43;;;;;;;1.95;1.20;;;;;;;15.59;56.43;100020.88;4994121;28;20093;-65
2023/05/10 04:39:09;;;;;;;0.60;0.60;;;;;;;15.40;57.63;100016.00;4994368;28;20107;-64
2023/05/10 04:41:35;;;;;;;1.17;0.77;;;;;;;15.49;58.04;100019.03;5005293;28;20039;-65
2023/05/10 04:44:00;;;;;;;0.80;0.80;;;;;;;15.60;57.16;100016.22;5004084;28;20388;-66
2023/05/10 04:46:25;;;;;;;1.08;0.77;;;;;;;15.63;57.21;100018.91;4994602;28;20427;-65
2023/05/10 04:48:54;;;;;;;0.52;0.40;;;;;;;15.64;57.92;100020.41;4994324;28;20044;-65
2023/05/10 04:51:20;;;;;;;1.58;0.90;;;;;;;15.49;57.59;100029.88;4999667;28;20089;-66
2023/05/10 04:53:45;;;;;;;2.30;0.80;;;;;;;15.69;57.37;100022.72;5001701;28;20021;-65
2023/05/10 04:56:11;;;;;;;0.70;0.50;;;;;;;15.69;57.04;100024.66;5000008;28;20044;-66
2023/05/10 04:58:36;;;;;;;1.40;0.90;;;;;;;15.56;57.62;100029.84;5004427;28;20437;-65
2023/05/10 05:01:10;;;;;;;0.60;0.55;;;;;;;15.73;56.96;100022.66;4991310;28;20360;-65
2023/05/10 05:03:36;;;;;;;2.28;0.77;;;;;;;15.75;56.94;100031.19;5001815;28;20065;-65
2023/05/10 05:06:02;;;;;;;1.42;0.90;;;;;;;15.85;57.01;100027.59;4988578;28;20056;-65
2023/05/10 05:08:27;;;;;;;1.10;0.70;;;;;;;15.81;57.18;100024.91;4988860;28;20041;-66
2023/05/10 05:10:52;;;;;;;1.08;0.70;;;;;;;15.99;56.47;100028.16;4986863;28;20038;-65
2023/05/10 05:13:18;;;;;;;0.80;0.70;;;;;;;15.94;56.68;100020.47;5003401;28;20471;-65
2023/05/10 05:15:43;;;;;;;0.55;0.40;;;;;;;15.70;57.12;100015.34;4998952;28;20471;-66
2023/05/10 05:18:09;;;;;;;0.98;0.77;;;;;;;15.96;57.11;100020.06;4988997;28;20042;-65
2023/05/10 05:20:34;;;;;;;0.47;0.47;;;;;;;16.16;57.20;100021.75;5003979;28;20030;-64
2023/05/10 05:23:00;;;;;;;0.52;0.52;;;;;;;16.16;56.83;100032.63;4996985;28;20074;-66
2023/05/10 05:25:26;;;;;;;0.93;0.88;;;;;;;15.74;57.58;100032.34;4996426;28;20034;-65
2023/05/10 05:27:51;;;;;;;0.70;0.43;;;;;;;16.32;57.21;100029.31;5002654;28;20501;-67
2023/05/10 05:30:17;;;;;;;2.08;0.82;;;;;;;16.83;55.54;100023.56;4999843;28;20034;-65
2023/05/10 05:32:42;;;;;;;0.98;0.57;;;;;;;17.22;54.21;100028.38;4999276;28;20065;-65
2023/05/10 05:35:08;;;;;;;1.13;1.00;;;;;;;17.11;53.33;100033.22;4993312;28;20616;-64
2023/05/10 05:37:33;;;;;;;1.42;0.80;;;;;;;17.27;53.35;100036.06;5005052;28;20050;-65
2023/05/10 05:40:01;;;;;;;1.00;0.70;;;;;;;17.50;52.60;100033.34;5001191;28;20029;-65
2023/05/10 05:42:26;;;;;;;0.88;0.65;;;;;;;17.48;53.11;100045.81;4995063;28;20044;-65
2023/05/10 05:44:52;;;;;;;1.20;0.60;;;;;;;17.92;52.29;100037.25;5009105;28;20026;-65
2023/05/10 05:47:17;;;;;;;0.50;0.50;;;;;;;18.16;51.95;100041.41;4993028;28;20030;-66
2023/05/10 05:49:45;;;;;;;1.15;0.77;;;;;;;18.41;51.45;100036.19;4997961;28;20445;-65
2023/05/10 05:52:11;;;;;;;0.75;0.57;;;;;;;18.33;51.63;100051.16;5004359;28;20030;-65
2023/05/10 05:54:36;;;;;;;1.17;0.52;;;;;;;18.42;51.30;100032.31;4994089;28;20040;-65
2023/05/10 05:57:02;;;;;;;0.93;0.60;;;;;;;18.02;51.46;100034.28;4993443;28;20148;-65
2023/05/10 05:59:28;;;;;;;0.50;0.50;;;;;;;18.13;51.48;100045.00;5000904;28;20060;-65
2023/05/10 06:01:54;;;;;;;1.23;0.77;;;;;;;17.96;51.51;100044.13;5005883;28;20480;-66
2023/05/10 06:04:19;;;;;;;0.80;0.75;;;;;;;17.82;52.05;100044.44;5003337;28;20034;-65
2023/05/10 06:06:45;;;;;;;0.73;0.70;;;;;;;17.89;51.45;100046.22;4989525;28;20041;-65
2023/05/10 06:09:11;;;;;;;1.38;0.68;;;;;;;17.81;52.54;100051.06;4998428;28;20380;-65
2023/05/10 06:11:37;;;;;;;0.50;0.50;;;;;;;17.64;52.73;100041.25;5007534;28;20161;-65
2023/05/10 06:14:04;;;;;;;0.88;0.73;;;;;;;17.78;52.88;100043.72;4981419;28;20490;-65
2023/05/10 06:16:30;;;;;;;0.60;0.55;;;;;;;18.00;52.01;100052.28;4997469;28;20038;-65
2023/05/10 06:18:56;;;;;;;0.90;0.68;;;;;;;18.22;52.18;100050.63;4991856;28;20034;-65
2023/05/10 06:21:22;;;;;;;1.30;1.00;;;;;;;18.44;52.10;100051.00;4991434;28;20045;-66
2023/05/10 06:23:47;;;;;;;1.73;0.82;;;;;;;18.43;51.77;100060.34;4989533;28;20049;-65
2023/05/10 06:26:13;;;;;;;1.17;0.90;;;;;;;18.04;51.98;100056.44;5001665;28;20038;-66
2023/05/10 06:28:39;;;;;;;0.52;0.52;;;;;;;17.99;53.01;100059.66;5003229;28;20165;-66
2023/05/10 06:31:06;;;;;;;0.80;0.52;;;;;;;18.51;52.62;100067.19;5004766;28;20041;-66
2023/05/10 06:33:32;;;;;;;0.45;0.45;;;;;;;18.73;50.32;100062.81;5009291;28;20486;-66
2023/05/10 06:35:57;;;;;;;0.82;0.50;;;;;;;18.55;51.22;100065.94;5000950;28;20022;-66
2023/05/10 06:38:23;;;;;;;1.30;0.63;;;;;;;19.12;50.51;100070.88;4996231;28;20045;-66
2023/05/10 06:40:48;;;;;;;0.63;0.55;;;;;;;19.33;50.68;100077.78;5000886;28;20380;-65
2023/05/10 06:43:14;;;;;;;1.00;0.60;;;;;;;19.18;49.92;100066.41;4992966;28;20073;-66
2023/05/10 06:45:39;;;;;;;1.17;0.80;;;;;;;19.17;49.70;100072.31;4991423;28;20089;-66
2023/05/10 06:48:05;;;;;;;0.90;0.50;;;;;;;19.17;50.01;100075.03;4993937;28;20112;-66
2023/05/10 06:50:30;;;;;;;0.70;0.70;;;;;;;19.41;49.60;100071.75;4990287;28;20401;-66
2023/05/10 06:52:55;;;;;;;0.65;0.57;;;;;;;19.32;49.19;100073.47;5010450;28;20542;-66
2023/05/10 06:55:21;;;;;;;1.02;0.60;;;;;;;19.45;49.46;100069.66;5001490;28;20041;-66
2023/05/10 06:57:50;;;;;;;2.35;0.60;;;;;;;19.54;49.09;100069.84;4994632;28;20041;-65
2023/05/10 07:00:16;;;;;;;1.15;0.70;;;;;;;19.32;49.48;100068.03;5001033;28;20034;-66
2023/05/10 07:02:42;;;;;;;0.85;0.65;;;;;;;19.17;49.31;100081.25;5004701;28;20030;-65
2023/05/10 07:05:08;;;;;;;1.33;0.68;;;;;;;19.37;50.51;100078.47;4990941;28;20057;-65
2023/05/10 07:07:33;;;;;;;0.60;0.52;;;;;;;19.40;49.72;100072.16;4992401;28;20031;-65
2023/05/10 07:10:00;;;;;;;2.20;0.63;;;;;;;19.64;50.26;100079.72;4998556;28;20786;-66
2023/05/10 07:12:26;;;;;;;0.75;0.50;;;;;;;19.36;49.85;100077.69;4991817;28;20050;-66
2023/05/10 07:14:52;;;;;;;1.88;0.77;;;;;;;19.32;49.72;100076.22;5003019;28;20030;-66
2023/05/10 07:17:17;;;;;;;0.88;0.65;;;;;;;19.31;48.83;100080.94;5000665;28;20046;-65
2023/05/10 07:19:43;;;;;;;1.27;0.70;;;;;;;19.38;50.01;100086.25;4992545;28;20106;-65
2023/05/10 07:22:08;;;;;;;1.15;0.73;;;;;;;19.91;49.21;100081.34;4998329;28;20109;-66
2023/05/10 07:24:34;;;;;;;2.33;0.70;;;;;;;19.92;48.88;100080.19;4993234;28;20034;-66
2023/05/10 07:26:59;;;;;;;0.80;0.55;;;;;;;20.10;49.04;100083.16;5006530;28;20033;-65
2023/05/10 07:29:25;;;;;;;0.45;0.40;;;;;;;20.05;49.02;100080.97;5002439;28;20052;-66
2023/05/10 07:31:50;;;;;;;1.15;0.57;;;;;;;19.66;49.09;100087.50;5007560;28;20038;-66
2023/05/10 07:34:16;;;;;;;2.22;0.90;;;;;;;20.12;48.34;100092.47;5006344;28;20036;-66
2023/05/10 07:36:41;;;;;;;0.82;0.57;;;;;;;20.03;48.12;100086.09;4997875;28;20085;-65
2023/05/10 07:39:07;;;;;;;1.35;0.60;;;;;;;20.13;48.48;100090.53;4997766;28;20033;-66
2023/05/10 07:41:32;;;;;;;3.50;0.75;;;;;;;20.42;47.10;100094.75;5005685;28;20045;-66
2023/05/10 07:43:58;;;;;;;1.45;0.52;;;;;;;19.58;49.17;100089.63;5000083;28;20121;-65
2023/05/10 07:46:23;;;;;;;0.95;0.73;;;;;;;20.31;48.74;100090.81;5001526;28;20050;-66
2023/05/10 07:48:49;;;;;;;1.30;0.60;;;;;;;20.69;46.63;100086.19;5004072;28;20033;-66
2023/05/10 07:51:14;;;;;;;1.85;0.77;;;;;;;20.88;47.44;100087.94;4997777;28;20036;-66
2023/05/10 07:53:39;;;;;;;0.77;0.50;;;;;;;20.94;47.73;100088.91;5007170;28;20037;-66
2023/05/10 07:56:26;;;;;;;1.25;0.70;;;;;;;21.06;47.32;100081.94;4990955;28;20037;-66
2023/05/10 07:58:51;;;;;;;1.02;0.70;;;;;;;20.74;46.65;100091.09;4990986;28;20022;-65
2023/05/10 08:01:17;;;;;;;1.73;0.65;;;;;;;20.54;47.43;100085.81;4999106;28;20494;-66
2023/05/10 08:03:43;;;;;;;0.93;0.77;;;;;;;20.72;48.25;100096.25;4990306;28;20050;-62
2023/05/10 08:06:08;;;;;;;1.17;0.70;;;;;;;20.85;46.88;100096.25;5007002;28;20017;-64
2023/05/10 08:08:34;;;;;;;0.95;0.63;;;;;;;20.45;47.44;100098.59;4987429;28;20556;-64
2023/05/10 08:11:00;;;;;;;1.50;0.50;;;;;;;20.49;48.04;100105.53;5006285;28;20486;-64
2023/05/10 08:13:25;;;;;;;0.63;0.50;;;;;;;20.38;47.83;100105.03;5008831;28;20034;-64
2023/05/10 08:15:52;;;;;;;1.08;0.70;;;;;;;20.52;47.33;100106.59;5002340;28;20076;-64
2023/05/10 08:18:18;;;;;;;0.50;0.50;;;;;;;20.35;48.10;100107.88;4993270;28;20042;-64
2023/05/10 08:20:44;;;;;;;0.77;0.75;;;;;;;20.16;48.18;100106.81;4998834;28;20483;-64
2023/05/10 08:23:09;;;;;;;1.08;0.80;;;;;;;19.32;49.28;100114.44;5007629;28;20042;-64
2023/05/10 08:25:37;;;;;;;0.82;0.30;;;;;;;18.84;50.51;100107.00;5001888;28;20426;-64
2023/05/10 08:28:03;;;;;;;0.82;0.60;;;;;;;19.15;50.16;100105.50;4995183;28;20041;-64
2023/05/10 08:30:28;;;;;;;1.08;0.80;;;;;;;19.47;50.27;100113.72;5005271;28;20033;-64
2023/05/10 08:32:53;;;;;;;0.50;0.50;;;;;;;19.27;50.15;100101.31;4996638;28;20049;-65
2023/05/10 08:35:19;;;;;;;2.03;0.80;;;;;;;19.44;50.54;100111.06;5003056;28;20034;-64
2023/05/10 08:37:45;;;;;;;1.05;0.80;;;;;;;19.95;49.35;100112.09;4997071;28;20037;-65
2023/05/10 08:40:11;;;;;;;1.45;1.02;;;;;;;19.75;49.54;100106.75;5003337;28;20026;-65
2023/05/10 08:42:47;;;;;;;0.43;0.43;;;;;;;20.17;49.09;100113.06;4968906;28;20478;-65
2023/05/10 08:45:14;;;;;;;2.00;1.13;;;;;;;20.21;48.97;100119.25;5010435;28;20030;-65
2023/05/10 08:47:40;;;;;;;1.00;0.70;;;;;;;20.11;48.78;100123.75;4996938;28;20107;-65
2023/05/10 08:50:10;;;;;;;1.02;0.68;;;;;;;20.50;48.22;100128.16;5001928;28;20507;-65
2023/05/10 08:52:40;;;;;;;0.52;0.52;;;;;;;20.62;48.58;100130.94;5006172;28;20042;-64
2023/05/10 08:55:06;;;;;;;0.77;0.63;;;;;;;20.84;47.74;100136.56;5002174;28;20057;-64
2023/05/10 08:57:31;;;;;;;2.22;1.23;;;;;;;20.57;47.46;100133.44;4998406;28;20025;-64
2023/05/10 08:59:59;;;;;;;0.68;0.60;;;;;;;20.56;48.46;100131.91;4998716;28;20094;-65
2023/05/10 09:02:25;;;;;;;1.17;0.60;;;;;;;20.87;48.11;100138.41;5007142;28;20069;-65
2023/05/10 09:04:51;;;;;;;1.65;0.80;;;;;;;20.80;48.82;100149.56;4984848;28;20037;-64
2023/05/10 09:07:17;;;;;;;1.00;0.60;;;;;;;20.66;48.83;100147.25;4995141;28;20026;-65
2023/05/10 09:09:43;;;;;;;1.15;1.00;;;;;;;20.42;48.93;100146.00;4997507;28;20034;-65
2023/05/10 09:12:11;;;;;;;2.67;0.70;;;;;;;20.32;49.35;100149.78;5001515;28;20092;-65
2023/05/10 09:14:37;;;;;;;3.20;0.80;;;;;;;19.96;50.16;100143.69;5003169;28;20057;-64
2023/05/10 09:17:04;;;;;;;0.90;0.65;;;;;;;20.13;50.46;100154.16;4994585;28;20042;-64
2023/05/10 09:19:29;;;;;;;1.17;0.88;;;;;;;19.67;50.38;100152.63;4993589;28;20062;-64
2023/05/10 09:21:57;;;;;;;0.90;0.57;;;;;;;19.90;50.36;100161.84;4979921;28;20050;-65
2023/05/10 09:24:28;;;;;;;0.73;0.60;;;;;;;20.06;51.59;100156.31;4984654;28;20377;-64
2023/05/10 09:26:56;;;;;;;4.47;0.68;;;;;;;20.33;50.96;100162.25;5005426;28;20091;-64
2023/05/10 09:29:22;;;;;;;1.75;0.75;;;;;;;19.62;51.48;100160.59;5009697;28;20033;-65
2023/05/10 09:31:54;;;;;;;0.50;0.50;;;;;;;19.68;51.91;100164.34;4998948;28;20398;-65
2023/05/10 09:34:29;;;;;;;0.52;0.52;;;;;;;20.07;51.16;100163.34;5007963;28;20127;-65
2023/05/10 09:36:58;;;;;;;0.75;0.60;;;;;;;20.31;50.67;100167.41;4994414;28;20034;-66
2023/05/10 09:39:33;;;;;;;1.15;0.52;;;;;;;20.25;50.66;100175.38;5001012;28;20306;-65
2023/05/10 09:42:01;;;;;;;1.13;0.88;;;;;;;20.38;51.59;100173.44;4996592;28;20045;-64
2023/05/10 09:44:27;;;;;;;1.85;1.00;;;;;;;20.14;50.77;100182.28;4996359;28;20664;-65
2023/05/10 09:46:55;;;;;;;1.38;0.50;;;;;;;19.85;51.47;100181.47;4999427;28;20045;-65
2023/05/10 09:49:22;;;;;;;1.10;0.82;;;;;;;19.97;51.58;100186.25;4999602;28;20033;-64
2023/05/10 09:51:57;;;;;;;3.40;0.80;;;;;;;19.46;52.36;100177.75;5002537;28;20061;-65
2023/05/10 09:54:23;;;;;;;1.00;0.77;;;;;;;19.57;52.58;100188.41;5000197;28;20487;-65
2023/05/10 09:56:49;;;;;;;1.63;1.00;;;;;;;19.60;52.98;100180.16;4990489;28;20067;-65
2023/05/10 09:59:15;;;;;;;1.17;0.88;;;;;;;19.65;53.21;100193.28;4998927;28;20058;-65
2023/05/10 10:01:41;;;;;;;0.95;0.55;;;;;;;19.41;53.59;100191.16;5000080;28;20426;-65
2023/05/10 10:04:09;;;;;;;2.30;0.43;;;;;;;19.49;53.98;100190.53;4986235;28;20053;-65
2023/05/10 10:06:39;;;;;;;0.95;0.80;;;;;;;19.80;53.63;100201.91;5006270;28;20069;-64
2023/05/10 10:09:08;;;;;;;1.08;0.63;;;;;;;19.66;53.70;100205.00;5005499;28;20042;-64
2023/05/10 10:11:38;;;;;;;1.40;0.68;;;;;;;19.63;54.57;100190.22;5005500;28;20033;-65
2023/05/10 10:14:04;;;;;;;0.80;0.60;;;;;;;19.64;54.44;100205.41;5007108;28;20129;-65
2023/05/10 10:16:31;;;;;;;1.23;0.70;;;;;;;19.34;54.62;100205.72;5001573;28;20049;-65
2023/05/10 10:18:57;;;;;;;0.65;0.57;;;;;;;19.01;56.23;100206.81;5002593;28;20034;-65
2023/05/10 10:21:23;;;;;;;1.20;0.57;;;;;;;19.28;57.36;100206.66;5002000;28;20361;-64
2023/05/10 10:23:48;;;;;;;2.20;1.15;;;;;;;19.47;57.61;100212.06;5003898;28;20072;-64
2023/05/10 10:26:17;;;;;;;1.10;0.63;;;;;;;19.48;58.81;100210.09;5002614;28;20070;-65
2023/05/10 10:29:25;;;;;;;0.88;0.65;;;;;;;19.33;61.81;100208.88;5000593;28;20372;-65
2023/05/10 10:32:00;;;;;;;0.88;0.80;;;;;;;19.34;62.33;100221.34;4924396;29;20127;-65
2023/05/10 10:34:30;;;;;;;0.77;0.63;;;;;;;19.44;64.75;100225.78;4994774;28;20061;-64
2023/05/10 10:36:57;;;;;;;2.53;0.85;;;;;;;19.52;68.20;100227.94;4999797;28;20038;-65
2023/05/10 10:39:27;;;;;;;1.45;1.00;;;;;;;19.47;69.35;100224.97;5000413;28;20034;-65
2023/05/10 10:41:55;;;;;;;1.45;0.90;;;;;;;19.45;71.27;100238.28;5000762;28;20089;-65
2023/05/10 10:44:38;;;;;;;1.98;1.08;;;;;;;19.35;73.35;100239.28;5000585;28;20088;-65
2023/05/10 10:47:18;;;;;;;0.80;0.70;;;;;;;19.32;74.75;100242.81;4993806;28;20026;-65
2023/05/10 10:50:04;;;;;;;1.02;0.90;;;;;;;18.97;76.36;100243.59;5002598;28;20037;-65
2023/05/10 10:52:35;;;;;;;1.35;0.80;;;;;;;18.97;77.95;100249.03;4997004;28;20038;-65
2023/05/10 10:55:09;;;;;;;1.98;0.85;;;;;;;18.85;78.92;100250.47;5002920;28;20050;-65
2023/05/10 10:57:41;;;;;;;1.15;1.00;;;;;;;18.87;79.35;100250.81;5002612;28;20060;-65
2023/05/10 11:00:22;;;;;;;2.55;0.90;;;;;;;18.95;79.31;100256.88;5003801;28;20030;-65
2023/05/10 11:02:49;;;;;;;;;;;;;;;18.96;80.00;100252.94;5001352;28;20143;-65
2023/05/10 11:05:36;;;;;;;2.58;0.80;;;;;;;18.95;80.59;100265.81;4997834;28;19956;-64
2023/05/10 11:08:24;;;;;;;1.88;1.10;;;;;;;19.03;79.65;100261.75;4998652;28;20076;-65
2023/05/10 11:10:51;;;;;;;2.67;1.10;;;;;;;19.06;79.59;100262.88;4993063;28;20453;-64
2023/05/10 11:13:38;;;;;;;2.05;1.00;;;;;;;19.16;79.72;100270.09;4997489;28;20085;-64
2023/05/10 11:16:26;;;;;;;1.95;1.20;;;;;;;18.76;82.08;100259.19;4999562;28;20033;-64
2023/05/10 11:18:51;;;;;;;1.80;1.13;;;;;;;18.71;82.15;100258.91;4996880;28;20030;-65
2023/05/10 11:21:17;;;;;;;1.23;0.88;;;;;;;18.43;82.84;100270.34;4995725;28;20092;-65
2023/05/10 11:23:58;;;;;;;2.78;1.27;;;;;;;18.63;82.04;100268.41;4994845;28;20088;-66
2023/05/10 11:26:32;;;;;;;1.88;1.27;;;;;;;18.73;82.21;100276.41;4984035;28;20033;-65
2023/05/10 11:29:01;;;;;;;1.20;0.65;;;;;;;18.66;80.91;100275.78;4995378;28;20088;-65
2023/05/10 11:31:27;;;;;;;2.90;1.40;;;;;;;18.49;83.56;100268.66;4991522;28;20042;-66